AFL1447 UWGG-UMMS
Flight info
| Callsign | AFL1447 |
|---|---|
| Flight time | 1h 53m |
| Altitude | 34000 |
| Route | LARNO2S LARNO T784 IBROT M864 TEKBO N858 NATLO L856 GODBI L736 ASKIL M863 RUHAL RUHAL2E |
| Aircraft | A321/M-SDE3FGHIRWY/LB1 |
Departure
| Time | 2026-05-09 12:00 |
|---|---|
| Airport | Nizhny Novgorod / Strigino International Airport (UWGG) |
Arrival
| Time | 2026-05-09 13:53 |
|---|---|
| Airport | Minsk National Airport (UMMS) |
| Time | Latitude | Longitude | Altitude | Speed | Heading |
|---|---|---|---|---|---|
| 2026-05-09 11:06 | 56.22024 | 43.78844 | 266 ft | 0 kts | 101° |
| 2026-05-09 11:34 | 56.22025 | 43.78831 | 266 ft | 0 kts | 101° |
| 2026-05-09 11:34 | 56.22029 | 43.78796 | 266 ft | 4 kts | 101° |
| 2026-05-09 11:34 | 56.22034 | 43.78748 | 266 ft | 4 kts | 101° |
| 2026-05-09 11:34 | 56.22039 | 43.78701 | 266 ft | 4 kts | 101° |
| 2026-05-09 11:35 | 56.22040 | 43.78685 | 266 ft | 0 kts | 101° |
| 2026-05-09 11:45 | 56.22040 | 43.78690 | 266 ft | 1 kts | 101° |
| 2026-05-09 11:45 | 56.22040 | 43.78691 | 266 ft | 0 kts | 101° |
| 2026-05-09 11:45 | 56.22039 | 43.78694 | 266 ft | 0 kts | 102° |
| 2026-05-09 11:49 | 56.22039 | 43.78695 | 266 ft | 1 kts | 102° |
| 2026-05-09 11:49 | 56.22017 | 43.78726 | 266 ft | 6 kts | 155° |
| 2026-05-09 11:49 | 56.21985 | 43.78726 | 266 ft | 4 kts | 185° |
| 2026-05-09 11:50 | 56.21972 | 43.78721 | 266 ft | 0 kts | 191° |
| 2026-05-09 11:52 | 56.21967 | 43.78719 | 266 ft | 2 kts | 192° |
| 2026-05-09 11:52 | 56.21953 | 43.78712 | 266 ft | 2 kts | 198° |
| 2026-05-09 11:53 | 56.21945 | 43.78705 | 266 ft | 1 kts | 204° |
| 2026-05-09 11:53 | 56.21929 | 43.78682 | 266 ft | 3 kts | 227° |
| 2026-05-09 11:53 | 56.21920 | 43.78654 | 266 ft | 3 kts | 243° |
| 2026-05-09 11:53 | 56.21914 | 43.78606 | 266 ft | 6 kts | 266° |
| 2026-05-09 11:54 | 56.21921 | 43.78520 | 266 ft | 6 kts | 281° |
| 2026-05-09 11:54 | 56.21928 | 43.78455 | 266 ft | 4 kts | 281° |
| 2026-05-09 11:54 | 56.21929 | 43.78445 | 266 ft | 0 kts | 281° |
| 2026-05-09 11:58 | 56.21933 | 43.78407 | 267 ft | 4 kts | 281° |
| 2026-05-09 11:58 | 56.21938 | 43.78364 | 267 ft | 3 kts | 281° |
| 2026-05-09 11:58 | 56.21943 | 43.78322 | 267 ft | 5 kts | 281° |
| 2026-05-09 11:58 | 56.21950 | 43.78262 | 266 ft | 6 kts | 284° |
| 2026-05-09 11:59 | 56.21987 | 43.78220 | 266 ft | 6 kts | 0° |
| 2026-05-09 11:59 | 56.22027 | 43.78231 | 267 ft | 8 kts | 9° |
| 2026-05-09 11:59 | 56.22288 | 43.78326 | 267 ft | 73 kts | 12° |
| 2026-05-09 11:59 | 56.22989 | 43.78582 | 269 ft | 129 kts | 12° |
| 2026-05-09 12:00 | 56.23993 | 43.78963 | 468 ft | 152 kts | 12° |
| 2026-05-09 12:00 | 56.25004 | 43.79346 | 1156 ft | 150 kts | 12° |
| 2026-05-09 12:00 | 56.26056 | 43.79752 | 1617 ft | 160 kts | 12° |
| 2026-05-09 12:00 | 56.27201 | 43.80162 | 1871 ft | 177 kts | 11° |
| 2026-05-09 12:01 | 56.28476 | 43.80621 | 2050 ft | 197 kts | 11° |
| 2026-05-09 12:01 | 56.29897 | 43.81131 | 2200 ft | 222 kts | 12° |
| 2026-05-09 12:01 | 56.31470 | 43.81694 | 2716 ft | 235 kts | 11° |
| 2026-05-09 12:01 | 56.33096 | 43.82286 | 3496 ft | 239 kts | 12° |
| 2026-05-09 12:02 | 56.34734 | 43.82885 | 4340 ft | 242 kts | 11° |
| 2026-05-09 12:02 | 56.36376 | 43.83487 | 5101 ft | 246 kts | 11° |
| 2026-05-09 12:02 | 56.38050 | 43.84179 | 5865 ft | 250 kts | 19° |
| 2026-05-09 12:02 | 56.39453 | 43.86054 | 6595 ft | 258 kts | 53° |
| 2026-05-09 12:03 | 56.40105 | 43.89087 | 7274 ft | 268 kts | 83° |
| 2026-05-09 12:03 | 56.39979 | 43.92493 | 7962 ft | 275 kts | 94° |
| 2026-05-09 12:03 | 56.39746 | 43.95939 | 8658 ft | 279 kts | 94° |
| 2026-05-09 12:03 | 56.39509 | 43.99440 | 9358 ft | 283 kts | 94° |
| 2026-05-09 12:04 | 56.39273 | 44.02986 | 10049 ft | 287 kts | 94° |
| 2026-05-09 12:04 | 56.39037 | 44.06602 | 10626 ft | 294 kts | 94° |
| 2026-05-09 12:04 | 56.38646 | 44.10353 | 10829 ft | 315 kts | 109° |
| 2026-05-09 12:04 | 56.37541 | 44.13831 | 11265 ft | 326 kts | 130° |
| 2026-05-09 12:05 | 56.35787 | 44.16452 | 11789 ft | 332 kts | 152° |
| 2026-05-09 12:05 | 56.33573 | 44.17829 | 11953 ft | 346 kts | 176° |
| 2026-05-09 12:05 | 56.31147 | 44.17568 | 12078 ft | 356 kts | 198° |
| 2026-05-09 12:05 | 56.28726 | 44.16238 | 12262 ft | 371 kts | 201° |
| 2026-05-09 12:06 | 56.26242 | 44.14818 | 12714 ft | 377 kts | 201° |
| 2026-05-09 12:06 | 56.23727 | 44.13384 | 13270 ft | 381 kts | 201° |
| 2026-05-09 12:06 | 56.21196 | 44.11957 | 13845 ft | 382 kts | 201° |
| 2026-05-09 12:06 | 56.18654 | 44.10537 | 14401 ft | 384 kts | 202° |
| 2026-05-09 12:07 | 56.16092 | 44.09111 | 14877 ft | 386 kts | 202° |
| 2026-05-09 12:07 | 56.13594 | 44.07374 | 15342 ft | 383 kts | 212° |
| 2026-05-09 12:07 | 56.11387 | 44.04865 | 15809 ft | 380 kts | 223° |
| 2026-05-09 12:07 | 56.09491 | 44.01621 | 16255 ft | 376 kts | 234° |
| 2026-05-09 12:08 | 56.07989 | 43.97813 | 16698 ft | 373 kts | 243° |
| 2026-05-09 12:08 | 56.06643 | 43.93832 | 17140 ft | 376 kts | 243° |
| 2026-05-09 12:08 | 56.05278 | 43.89824 | 17549 ft | 378 kts | 243° |
| 2026-05-09 12:08 | 56.03898 | 43.85803 | 17963 ft | 380 kts | 243° |
| 2026-05-09 12:09 | 56.02505 | 43.81764 | 18362 ft | 383 kts | 243° |
| 2026-05-09 12:09 | 56.01100 | 43.77704 | 18689 ft | 386 kts | 242° |
| 2026-05-09 12:09 | 55.99682 | 43.73611 | 18989 ft | 389 kts | 242° |
| 2026-05-09 12:10 | 55.95388 | 43.61217 | 20064 ft | 394 kts | 242° |
| 2026-05-09 12:10 | 55.93942 | 43.57060 | 20424 ft | 396 kts | 242° |
| 2026-05-09 12:10 | 55.92484 | 43.52881 | 20801 ft | 397 kts | 242° |
| 2026-05-09 12:11 | 55.91020 | 43.48696 | 21177 ft | 399 kts | 242° |
| 2026-05-09 12:11 | 55.89550 | 43.44493 | 21565 ft | 401 kts | 242° |
| 2026-05-09 12:11 | 55.88071 | 43.40271 | 21944 ft | 402 kts | 241° |
| 2026-05-09 12:11 | 55.86583 | 43.36036 | 22324 ft | 404 kts | 241° |
| 2026-05-09 12:12 | 55.85091 | 43.31791 | 22678 ft | 406 kts | 240° |
| 2026-05-09 12:12 | 55.83594 | 43.27507 | 23013 ft | 408 kts | 243° |
| 2026-05-09 12:12 | 55.82454 | 43.22918 | 23361 ft | 406 kts | 255° |
| 2026-05-09 12:12 | 55.81949 | 43.17983 | 23699 ft | 406 kts | 268° |
| 2026-05-09 12:13 | 55.82111 | 43.13059 | 23995 ft | 407 kts | 281° |
| 2026-05-09 12:13 | 55.82918 | 43.08238 | 24271 ft | 409 kts | 293° |
| 2026-05-09 12:13 | 55.84335 | 43.03836 | 24568 ft | 412 kts | 303° |
| 2026-05-09 12:13 | 55.85991 | 42.99662 | 24855 ft | 413 kts | 303° |
| 2026-05-09 12:14 | 55.87650 | 42.95470 | 25173 ft | 414 kts | 303° |
| 2026-05-09 12:14 | 55.89306 | 42.91263 | 25490 ft | 416 kts | 303° |
| 2026-05-09 12:14 | 55.90965 | 42.87029 | 25802 ft | 417 kts | 303° |
| 2026-05-09 12:14 | 55.92626 | 42.82778 | 26095 ft | 418 kts | 302° |
| 2026-05-09 12:15 | 55.94288 | 42.78509 | 26392 ft | 420 kts | 302° |
| 2026-05-09 12:15 | 55.95955 | 42.74225 | 26682 ft | 421 kts | 302° |
| 2026-05-09 12:15 | 55.97626 | 42.69932 | 26961 ft | 422 kts | 302° |
| 2026-05-09 12:15 | 55.99302 | 42.65618 | 27208 ft | 423 kts | 302° |
| 2026-05-09 12:16 | 56.00979 | 42.61286 | 27480 ft | 424 kts | 301° |
| 2026-05-09 12:16 | 56.02435 | 42.56715 | 27709 ft | 423 kts | 292° |
| 2026-05-09 12:16 | 56.03445 | 42.51792 | 27929 ft | 422 kts | 284° |
| 2026-05-09 12:16 | 56.03996 | 42.46651 | 28139 ft | 422 kts | 275° |
| 2026-05-09 12:17 | 56.04109 | 42.41411 | 28332 ft | 423 kts | 270° |
| 2026-05-09 12:17 | 56.04132 | 42.36155 | 28558 ft | 423 kts | 270° |
| 2026-05-09 12:17 | 56.04159 | 42.30907 | 28855 ft | 421 kts | 270° |
| 2026-05-09 12:17 | 56.04187 | 42.25735 | 29083 ft | 421 kts | 270° |
| 2026-05-09 12:18 | 56.04217 | 42.20499 | 29335 ft | 421 kts | 270° |
| 2026-05-09 12:18 | 56.04242 | 42.15256 | 29599 ft | 420 kts | 270° |
| 2026-05-09 12:18 | 56.04261 | 42.10043 | 29871 ft | 419 kts | 270° |
| 2026-05-09 12:18 | 56.04276 | 42.04837 | 30106 ft | 418 kts | 270° |
| 2026-05-09 12:19 | 56.04288 | 41.99633 | 30352 ft | 418 kts | 270° |
| 2026-05-09 12:19 | 56.04300 | 41.94441 | 30580 ft | 417 kts | 270° |
| 2026-05-09 12:19 | 56.04312 | 41.89259 | 30817 ft | 416 kts | 270° |
| 2026-05-09 12:19 | 56.04320 | 41.84086 | 31024 ft | 416 kts | 270° |
| 2026-05-09 12:20 | 56.04324 | 41.78925 | 31255 ft | 415 kts | 269° |
| 2026-05-09 12:20 | 56.04327 | 41.73756 | 31480 ft | 415 kts | 269° |
| 2026-05-09 12:20 | 56.04330 | 41.68602 | 31714 ft | 414 kts | 269° |
| 2026-05-09 12:20 | 56.04330 | 41.63459 | 31946 ft | 413 kts | 269° |
| 2026-05-09 12:21 | 56.04327 | 41.58325 | 32176 ft | 413 kts | 269° |
| 2026-05-09 12:21 | 56.04322 | 41.53187 | 32414 ft | 413 kts | 269° |
| 2026-05-09 12:21 | 56.04314 | 41.48054 | 32603 ft | 413 kts | 269° |
| 2026-05-09 12:21 | 56.04304 | 41.42990 | 32818 ft | 413 kts | 269° |
| 2026-05-09 12:22 | 56.04292 | 41.37860 | 33050 ft | 412 kts | 269° |
| 2026-05-09 12:22 | 56.04277 | 41.32738 | 33279 ft | 412 kts | 269° |
| 2026-05-09 12:22 | 56.04261 | 41.27621 | 33512 ft | 411 kts | 269° |
| 2026-05-09 12:22 | 56.04241 | 41.22513 | 33745 ft | 410 kts | 269° |
| 2026-05-09 12:23 | 56.04219 | 41.17412 | 33917 ft | 411 kts | 269° |
| 2026-05-09 12:23 | 56.04195 | 41.12290 | 34057 ft | 412 kts | 269° |
| 2026-05-09 12:23 | 56.04171 | 41.07162 | 34233 ft | 413 kts | 269° |
| 2026-05-09 12:24 | 56.04117 | 40.96933 | 34276 ft | 410 kts | 269° |
| 2026-05-09 12:24 | 56.04058 | 40.86746 | 34274 ft | 410 kts | 269° |
| 2026-05-09 12:25 | 56.03983 | 40.76561 | 34281 ft | 410 kts | 268° |
| 2026-05-09 12:25 | 56.03900 | 40.66363 | 34277 ft | 410 kts | 268° |
| 2026-05-09 12:26 | 56.03810 | 40.56166 | 34280 ft | 410 kts | 268° |
| 2026-05-09 12:26 | 56.03734 | 40.47693 | 34278 ft | 410 kts | 268° |
| 2026-05-09 12:27 | 56.03620 | 40.35845 | 34276 ft | 410 kts | 268° |
| 2026-05-09 12:27 | 56.03501 | 40.25631 | 34254 ft | 412 kts | 268° |
| 2026-05-09 12:28 | 56.03394 | 40.17049 | 34256 ft | 413 kts | 268° |
| 2026-05-09 12:28 | 56.03348 | 40.13478 | 34256 ft | 413 kts | 268° |
| 2026-05-09 12:29 | 56.03325 | 40.11717 | 34259 ft | 413 kts | 268° |
| 2026-05-09 12:29 | 56.03183 | 40.01431 | 34274 ft | 414 kts | 268° |
| 2026-05-09 12:30 | 56.03038 | 39.91148 | 34267 ft | 414 kts | 268° |
| 2026-05-09 12:30 | 56.02802 | 39.75703 | 34267 ft | 414 kts | 268° |
| 2026-05-09 12:31 | 56.02044 | 39.60364 | 34268 ft | 414 kts | 254° |
| 2026-05-09 12:32 | 56.00251 | 39.50591 | 34252 ft | 414 kts | 252° |
| 2026-05-09 12:32 | 55.98441 | 39.40817 | 34253 ft | 415 kts | 252° |
| 2026-05-09 12:33 | 55.96635 | 39.31074 | 34257 ft | 416 kts | 252° |
| 2026-05-09 12:33 | 55.94806 | 39.21266 | 34254 ft | 417 kts | 252° |
| 2026-05-09 12:34 | 55.92965 | 39.11458 | 34278 ft | 417 kts | 252° |
| 2026-05-09 12:34 | 55.91114 | 39.01650 | 34279 ft | 417 kts | 251° |
| 2026-05-09 12:35 | 55.89251 | 38.91853 | 34274 ft | 417 kts | 251° |
| 2026-05-09 12:35 | 55.87386 | 38.82086 | 34280 ft | 416 kts | 251° |
| 2026-05-09 12:36 | 55.85521 | 38.72334 | 34283 ft | 416 kts | 251° |
| 2026-05-09 12:36 | 55.83655 | 38.62673 | 34283 ft | 415 kts | 251° |
| 2026-05-09 12:37 | 55.81772 | 38.52970 | 34281 ft | 415 kts | 251° |
| 2026-05-09 12:37 | 55.79883 | 38.43274 | 34280 ft | 415 kts | 251° |
| 2026-05-09 12:38 | 55.77990 | 38.33599 | 34274 ft | 414 kts | 251° |
| 2026-05-09 12:38 | 55.76098 | 38.23937 | 34274 ft | 414 kts | 250° |
| 2026-05-09 12:39 | 55.74196 | 38.14306 | 34275 ft | 413 kts | 250° |
| 2026-05-09 12:39 | 55.72280 | 38.04689 | 34276 ft | 413 kts | 250° |
| 2026-05-09 12:40 | 55.70361 | 37.95088 | 34283 ft | 413 kts | 250° |
| 2026-05-09 12:40 | 55.68450 | 37.85561 | 34273 ft | 413 kts | 250° |
| 2026-05-09 12:41 | 55.66515 | 37.75979 | 34264 ft | 413 kts | 250° |
| 2026-05-09 12:41 | 55.64724 | 37.66324 | 34261 ft | 413 kts | 256° |
| 2026-05-09 12:42 | 55.63425 | 37.56417 | 34257 ft | 413 kts | 256° |
| 2026-05-09 12:42 | 55.62106 | 37.46520 | 34246 ft | 413 kts | 256° |
| 2026-05-09 12:43 | 55.60775 | 37.36635 | 34241 ft | 413 kts | 256° |
| 2026-05-09 12:43 | 55.59435 | 37.26744 | 34241 ft | 413 kts | 256° |
| 2026-05-09 12:44 | 55.58085 | 37.16868 | 34242 ft | 413 kts | 255° |
| 2026-05-09 12:44 | 55.56740 | 37.07065 | 34257 ft | 413 kts | 256° |
| 2026-05-09 12:45 | 55.55377 | 36.97192 | 34256 ft | 414 kts | 255° |
| 2026-05-09 12:45 | 55.54002 | 36.87323 | 34250 ft | 414 kts | 255° |
| 2026-05-09 12:46 | 55.51929 | 36.77919 | 34246 ft | 412 kts | 239° |
| 2026-05-09 12:46 | 55.48385 | 36.69972 | 34240 ft | 413 kts | 230° |
| 2026-05-09 12:47 | 55.44625 | 36.62312 | 34242 ft | 413 kts | 230° |
| 2026-05-09 12:47 | 55.40867 | 36.54652 | 34237 ft | 413 kts | 231° |
| 2026-05-09 12:48 | 55.37107 | 36.47004 | 34237 ft | 413 kts | 231° |
| 2026-05-09 12:48 | 55.33348 | 36.39381 | 34242 ft | 413 kts | 231° |
| 2026-05-09 12:49 | 55.29602 | 36.31822 | 34244 ft | 413 kts | 231° |
| 2026-05-09 12:49 | 55.25824 | 36.24235 | 34245 ft | 413 kts | 230° |
| 2026-05-09 12:50 | 55.22045 | 36.16668 | 34235 ft | 412 kts | 231° |
| 2026-05-09 12:50 | 55.18267 | 36.09128 | 34246 ft | 411 kts | 231° |
| 2026-05-09 12:51 | 55.14495 | 36.01608 | 34246 ft | 411 kts | 231° |
| 2026-05-09 12:51 | 55.10720 | 35.94107 | 34247 ft | 411 kts | 231° |
| 2026-05-09 12:52 | 55.06936 | 35.86636 | 34247 ft | 411 kts | 231° |
| 2026-05-09 12:52 | 55.03169 | 35.79236 | 34238 ft | 410 kts | 231° |
| 2026-05-09 12:53 | 54.99384 | 35.71813 | 34235 ft | 410 kts | 231° |
| 2026-05-09 12:53 | 54.95597 | 35.64398 | 34235 ft | 409 kts | 231° |
| 2026-05-09 12:54 | 54.91809 | 35.57003 | 34232 ft | 409 kts | 231° |
| 2026-05-09 12:54 | 54.88018 | 35.49621 | 34232 ft | 409 kts | 231° |
| 2026-05-09 12:55 | 54.84219 | 35.42271 | 34219 ft | 409 kts | 231° |
| 2026-05-09 12:55 | 54.80421 | 35.34962 | 34231 ft | 407 kts | 231° |
| 2026-05-09 12:56 | 54.76671 | 35.27614 | 34226 ft | 405 kts | 236° |
| 2026-05-09 12:56 | 54.74188 | 35.19005 | 34227 ft | 400 kts | 255° |
| 2026-05-09 12:57 | 54.73556 | 35.09476 | 34237 ft | 400 kts | 267° |
| 2026-05-09 12:57 | 54.73393 | 34.99906 | 34211 ft | 401 kts | 267° |
| 2026-05-09 12:58 | 54.73220 | 34.90248 | 34204 ft | 402 kts | 267° |
| 2026-05-09 12:58 | 54.73044 | 34.80617 | 34219 ft | 399 kts | 267° |
| 2026-05-09 12:59 | 54.72868 | 34.71035 | 34219 ft | 398 kts | 267° |
| 2026-05-09 12:59 | 54.72684 | 34.61483 | 34219 ft | 396 kts | 267° |
| 2026-05-09 13:00 | 54.72494 | 34.51969 | 34218 ft | 396 kts | 266° |
| 2026-05-09 13:00 | 54.72289 | 34.42466 | 34225 ft | 395 kts | 266° |
| 2026-05-09 13:01 | 54.72072 | 34.32960 | 34205 ft | 396 kts | 266° |
| 2026-05-09 13:01 | 54.71853 | 34.23422 | 34192 ft | 397 kts | 266° |
| 2026-05-09 13:02 | 54.71632 | 34.13876 | 34188 ft | 398 kts | 266° |
| 2026-05-09 13:02 | 54.71400 | 34.04380 | 34188 ft | 398 kts | 266° |
| 2026-05-09 13:03 | 54.71156 | 33.94836 | 34185 ft | 396 kts | 266° |
| 2026-05-09 13:03 | 54.70899 | 33.85349 | 34204 ft | 394 kts | 265° |
| 2026-05-09 13:04 | 54.70401 | 33.75936 | 34205 ft | 392 kts | 262° |
| 2026-05-09 13:04 | 54.69748 | 33.66598 | 34195 ft | 391 kts | 262° |
| 2026-05-09 13:05 | 54.69101 | 33.57279 | 34196 ft | 390 kts | 262° |
| 2026-05-09 13:05 | 54.68487 | 33.47971 | 34193 ft | 390 kts | 262° |
| 2026-05-09 13:06 | 54.67875 | 33.38667 | 34191 ft | 389 kts | 262° |
| 2026-05-09 13:06 | 54.67260 | 33.29372 | 34179 ft | 389 kts | 262° |
| 2026-05-09 13:07 | 54.66640 | 33.20146 | 34178 ft | 389 kts | 262° |
| 2026-05-09 13:07 | 54.66008 | 33.10882 | 34181 ft | 387 kts | 262° |
| 2026-05-09 13:08 | 54.65365 | 33.01663 | 34191 ft | 386 kts | 262° |
| 2026-05-09 13:08 | 54.64725 | 32.92478 | 34170 ft | 385 kts | 262° |
| 2026-05-09 13:09 | 54.64072 | 32.83305 | 34164 ft | 385 kts | 262° |
| 2026-05-09 13:09 | 54.63419 | 32.74121 | 34162 ft | 386 kts | 262° |
| 2026-05-09 13:10 | 54.62759 | 32.64937 | 34154 ft | 386 kts | 261° |
| 2026-05-09 13:10 | 54.62081 | 32.55761 | 34154 ft | 385 kts | 261° |
| 2026-05-09 13:11 | 54.61410 | 32.46652 | 34152 ft | 385 kts | 261° |
| 2026-05-09 13:11 | 54.60727 | 32.37477 | 34150 ft | 385 kts | 261° |
| 2026-05-09 13:12 | 54.60036 | 32.28314 | 34163 ft | 385 kts | 261° |
| 2026-05-09 13:12 | 54.59338 | 32.19161 | 34155 ft | 385 kts | 261° |
| 2026-05-09 13:13 | 54.58634 | 32.09997 | 34149 ft | 385 kts | 260° |
| 2026-05-09 13:13 | 54.57923 | 32.00840 | 34146 ft | 386 kts | 260° |
| 2026-05-09 13:14 | 54.57208 | 31.91682 | 34147 ft | 385 kts | 260° |
| 2026-05-09 13:16 | 54.54267 | 31.55130 | 34118 ft | 388 kts | 260° |
| 2026-05-09 13:16 | 54.53506 | 31.45904 | 34098 ft | 390 kts | 259° |
| 2026-05-09 13:17 | 54.52730 | 31.36641 | 34099 ft | 392 kts | 259° |
| 2026-05-09 13:17 | 54.51945 | 31.27342 | 34097 ft | 393 kts | 259° |
| 2026-05-09 13:18 | 54.51149 | 31.18037 | 34099 ft | 393 kts | 259° |
| 2026-05-09 13:18 | 54.50304 | 31.08740 | 34091 ft | 393 kts | 255° |
| 2026-05-09 13:19 | 54.48716 | 30.99783 | 34099 ft | 392 kts | 251° |
| 2026-05-09 13:19 | 54.47039 | 30.90866 | 34102 ft | 392 kts | 251° |
| 2026-05-09 13:20 | 54.45364 | 30.81987 | 34082 ft | 395 kts | 251° |
| 2026-05-09 13:20 | 54.43661 | 30.73003 | 34077 ft | 396 kts | 250° |
| 2026-05-09 13:21 | 54.41940 | 30.64002 | 34077 ft | 397 kts | 250° |
| 2026-05-09 13:21 | 54.40215 | 30.54984 | 34074 ft | 398 kts | 250° |
| 2026-05-09 13:22 | 54.38489 | 30.45976 | 33969 ft | 395 kts | 250° |
| 2026-05-09 13:22 | 54.37641 | 30.41564 | 33731 ft | 383 kts | 250° |
| 2026-05-09 13:22 | 54.36812 | 30.37283 | 33418 ft | 373 kts | 250° |
| 2026-05-09 13:23 | 54.33615 | 30.20871 | 31538 ft | 353 kts | 250° |
| 2026-05-09 13:23 | 54.32842 | 30.16922 | 31137 ft | 347 kts | 249° |
| 2026-05-09 13:24 | 54.32078 | 30.13027 | 30685 ft | 343 kts | 249° |
| 2026-05-09 13:24 | 54.31323 | 30.09174 | 30205 ft | 339 kts | 249° |
| 2026-05-09 13:24 | 54.30576 | 30.05368 | 29636 ft | 337 kts | 249° |
| 2026-05-09 13:24 | 54.29830 | 30.01575 | 28960 ft | 336 kts | 249° |
| 2026-05-09 13:25 | 54.29085 | 29.97795 | 28332 ft | 334 kts | 249° |
| 2026-05-09 13:25 | 54.28345 | 29.94048 | 27731 ft | 332 kts | 249° |
| 2026-05-09 13:25 | 54.26872 | 29.86619 | 26558 ft | 328 kts | 249° |
| 2026-05-09 13:26 | 54.26142 | 29.82931 | 26019 ft | 326 kts | 249° |
| 2026-05-09 13:26 | 54.25415 | 29.79273 | 25491 ft | 325 kts | 248° |
| 2026-05-09 13:26 | 54.24698 | 29.75675 | 24982 ft | 323 kts | 248° |
| 2026-05-09 13:26 | 54.23969 | 29.72047 | 24465 ft | 322 kts | 248° |
| 2026-05-09 13:27 | 54.23245 | 29.68445 | 23957 ft | 320 kts | 248° |
| 2026-05-09 13:27 | 54.22522 | 29.64848 | 23428 ft | 319 kts | 248° |
| 2026-05-09 13:27 | 54.21799 | 29.61267 | 22863 ft | 318 kts | 248° |
| 2026-05-09 13:27 | 54.21081 | 29.57714 | 22356 ft | 315 kts | 248° |
| 2026-05-09 13:28 | 54.20368 | 29.54202 | 21867 ft | 312 kts | 248° |
| 2026-05-09 13:28 | 54.19659 | 29.50711 | 21371 ft | 310 kts | 248° |
| 2026-05-09 13:28 | 54.18956 | 29.47244 | 20863 ft | 308 kts | 248° |
| 2026-05-09 13:28 | 54.18256 | 29.43788 | 20371 ft | 307 kts | 248° |
| 2026-05-09 13:29 | 54.17794 | 29.41513 | 20038 ft | 306 kts | 248° |
| 2026-05-09 13:29 | 54.17098 | 29.38087 | 19557 ft | 305 kts | 248° |
| 2026-05-09 13:29 | 54.16403 | 29.34676 | 19095 ft | 304 kts | 248° |
| 2026-05-09 13:29 | 54.15706 | 29.31280 | 18628 ft | 303 kts | 248° |
| 2026-05-09 13:30 | 54.15008 | 29.27899 | 18157 ft | 302 kts | 248° |
| 2026-05-09 13:30 | 54.14313 | 29.24537 | 17676 ft | 300 kts | 248° |
| 2026-05-09 13:30 | 54.13625 | 29.21187 | 17183 ft | 299 kts | 250° |
| 2026-05-09 13:30 | 54.13163 | 29.17729 | 16704 ft | 300 kts | 260° |
| 2026-05-09 13:31 | 54.12955 | 29.14189 | 16224 ft | 300 kts | 261° |
| 2026-05-09 13:31 | 54.12751 | 29.10665 | 15749 ft | 298 kts | 261° |
| 2026-05-09 13:31 | 54.12547 | 29.07152 | 15290 ft | 297 kts | 261° |
| 2026-05-09 13:31 | 54.12341 | 29.03651 | 14845 ft | 296 kts | 261° |
| 2026-05-09 13:32 | 54.12131 | 29.00164 | 14406 ft | 295 kts | 261° |
| 2026-05-09 13:32 | 54.11709 | 28.93235 | 13526 ft | 293 kts | 261° |
| 2026-05-09 13:32 | 54.11498 | 28.89798 | 13062 ft | 291 kts | 261° |
| 2026-05-09 13:33 | 54.11290 | 28.86383 | 12628 ft | 288 kts | 261° |
| 2026-05-09 13:33 | 54.11090 | 28.82995 | 12189 ft | 287 kts | 262° |
| 2026-05-09 13:33 | 54.10905 | 28.79618 | 11757 ft | 285 kts | 262° |
| 2026-05-09 13:33 | 54.10726 | 28.76304 | 11338 ft | 284 kts | 262° |
| 2026-05-09 13:34 | 54.10545 | 28.72966 | 10923 ft | 282 kts | 262° |
| 2026-05-09 13:34 | 54.10364 | 28.69653 | 10582 ft | 279 kts | 262° |
| 2026-05-09 13:34 | 54.10184 | 28.66380 | 10283 ft | 277 kts | 262° |
| 2026-05-09 13:34 | 54.10003 | 28.63121 | 9992 ft | 276 kts | 262° |
| 2026-05-09 13:35 | 54.09820 | 28.59879 | 9684 ft | 275 kts | 262° |
| 2026-05-09 13:35 | 54.09637 | 28.56632 | 9375 ft | 275 kts | 262° |
| 2026-05-09 13:35 | 54.09453 | 28.53389 | 9085 ft | 274 kts | 262° |
| 2026-05-09 13:35 | 54.09268 | 28.50158 | 8797 ft | 273 kts | 262° |
| 2026-05-09 13:36 | 54.09081 | 28.46948 | 8520 ft | 272 kts | 262° |
| 2026-05-09 13:36 | 54.08892 | 28.43752 | 8217 ft | 271 kts | 262° |
| 2026-05-09 13:36 | 54.08704 | 28.40566 | 7935 ft | 270 kts | 262° |
| 2026-05-09 13:36 | 54.08520 | 28.37399 | 7653 ft | 269 kts | 262° |
| 2026-05-09 13:37 | 54.08340 | 28.34278 | 7374 ft | 267 kts | 262° |
| 2026-05-09 13:37 | 54.08157 | 28.31130 | 7096 ft | 267 kts | 262° |
| 2026-05-09 13:37 | 54.07971 | 28.27999 | 6810 ft | 265 kts | 261° |
| 2026-05-09 13:37 | 54.07783 | 28.24878 | 6532 ft | 264 kts | 261° |
| 2026-05-09 13:38 | 54.07595 | 28.21772 | 6246 ft | 263 kts | 261° |
| 2026-05-09 13:38 | 54.07407 | 28.18676 | 5959 ft | 263 kts | 261° |
| 2026-05-09 13:38 | 54.07218 | 28.15590 | 5681 ft | 261 kts | 262° |
| 2026-05-09 13:38 | 54.07033 | 28.12559 | 5484 ft | 252 kts | 261° |
| 2026-05-09 13:39 | 54.06857 | 28.09648 | 5354 ft | 242 kts | 262° |
| 2026-05-09 13:39 | 54.06927 | 28.06849 | 5180 ft | 236 kts | 281° |
| 2026-05-09 13:39 | 54.07596 | 28.04340 | 5029 ft | 235 kts | 303° |
| 2026-05-09 13:39 | 54.08754 | 28.02353 | 4908 ft | 239 kts | 316° |
| 2026-05-09 13:40 | 54.10017 | 28.00511 | 4712 ft | 239 kts | 316° |
| 2026-05-09 13:40 | 54.11275 | 27.98667 | 4467 ft | 238 kts | 316° |
| 2026-05-09 13:40 | 54.12525 | 27.96827 | 4227 ft | 237 kts | 316° |
| 2026-05-09 13:40 | 54.13771 | 27.94987 | 3996 ft | 236 kts | 316° |
| 2026-05-09 13:41 | 54.15009 | 27.93158 | 3907 ft | 235 kts | 316° |
| 2026-05-09 13:41 | 54.16245 | 27.91327 | 3852 ft | 236 kts | 316° |
| 2026-05-09 13:41 | 54.17466 | 27.89518 | 3798 ft | 235 kts | 316° |
| 2026-05-09 13:41 | 54.18703 | 27.87692 | 3740 ft | 235 kts | 316° |
| 2026-05-09 13:42 | 54.19938 | 27.85872 | 3674 ft | 235 kts | 316° |
| 2026-05-09 13:42 | 54.21178 | 27.84043 | 3569 ft | 235 kts | 316° |
| 2026-05-09 13:42 | 54.22414 | 27.82214 | 3450 ft | 235 kts | 316° |
| 2026-05-09 13:42 | 54.23650 | 27.80380 | 3303 ft | 235 kts | 316° |
| 2026-05-09 13:43 | 54.24881 | 27.78553 | 3185 ft | 234 kts | 316° |
| 2026-05-09 13:43 | 54.26110 | 27.76725 | 3070 ft | 234 kts | 316° |
| 2026-05-09 13:43 | 54.27304 | 27.74847 | 2987 ft | 231 kts | 305° |
| 2026-05-09 13:43 | 54.27968 | 27.72426 | 2991 ft | 224 kts | 275° |
| 2026-05-09 13:44 | 54.27842 | 27.69835 | 2983 ft | 218 kts | 246° |
| 2026-05-09 13:44 | 54.27025 | 27.67697 | 2992 ft | 215 kts | 226° |
| 2026-05-09 13:44 | 54.26009 | 27.65818 | 2987 ft | 214 kts | 219° |
| 2026-05-09 13:44 | 54.24716 | 27.64643 | 2984 ft | 213 kts | 192° |
| 2026-05-09 13:45 | 54.23244 | 27.64703 | 2986 ft | 216 kts | 164° |
| 2026-05-09 13:45 | 54.21885 | 27.65825 | 2991 ft | 218 kts | 154° |
| 2026-05-09 13:45 | 54.20554 | 27.67059 | 2991 ft | 219 kts | 154° |
| 2026-05-09 13:45 | 54.19212 | 27.68302 | 2990 ft | 219 kts | 154° |
| 2026-05-09 13:46 | 54.17872 | 27.69537 | 2987 ft | 219 kts | 154° |
| 2026-05-09 13:46 | 54.16548 | 27.70755 | 2991 ft | 219 kts | 154° |
| 2026-05-09 13:46 | 54.15206 | 27.71991 | 2993 ft | 219 kts | 154° |
| 2026-05-09 13:46 | 54.13864 | 27.73226 | 2995 ft | 219 kts | 154° |
| 2026-05-09 13:47 | 54.12546 | 27.74433 | 3009 ft | 209 kts | 155° |
| 2026-05-09 13:47 | 54.11277 | 27.75593 | 3001 ft | 205 kts | 155° |
| 2026-05-09 13:47 | 54.10029 | 27.76732 | 2998 ft | 203 kts | 155° |
| 2026-05-09 13:47 | 54.08788 | 27.77865 | 2999 ft | 203 kts | 155° |
| 2026-05-09 13:48 | 54.07546 | 27.78998 | 3003 ft | 203 kts | 155° |
| 2026-05-09 13:48 | 54.06310 | 27.80155 | 3004 ft | 203 kts | 152° |
| 2026-05-09 13:48 | 54.05154 | 27.81565 | 3007 ft | 205 kts | 145° |
| 2026-05-09 13:48 | 54.04062 | 27.83128 | 3003 ft | 205 kts | 143° |
| 2026-05-09 13:49 | 54.02992 | 27.84721 | 3004 ft | 205 kts | 142° |
| 2026-05-09 13:49 | 54.01920 | 27.86327 | 3004 ft | 205 kts | 142° |
| 2026-05-09 13:49 | 54.00848 | 27.87931 | 3009 ft | 205 kts | 142° |
| 2026-05-09 13:49 | 53.99824 | 27.89469 | 3006 ft | 184 kts | 143° |
| 2026-05-09 13:50 | 53.98920 | 27.90823 | 3011 ft | 166 kts | 144° |
| 2026-05-09 13:50 | 53.98065 | 27.92097 | 2810 ft | 162 kts | 144° |
| 2026-05-09 13:50 | 53.97232 | 27.93339 | 2521 ft | 156 kts | 144° |
| 2026-05-09 13:50 | 53.96442 | 27.94519 | 2280 ft | 147 kts | 144° |
| 2026-05-09 13:51 | 53.95685 | 27.95647 | 2082 ft | 143 kts | 143° |
| 2026-05-09 13:51 | 53.94939 | 27.96758 | 1878 ft | 143 kts | 143° |
| 2026-05-09 13:51 | 53.94191 | 27.97872 | 1677 ft | 143 kts | 142° |
| 2026-05-09 13:51 | 53.93443 | 27.98985 | 1472 ft | 143 kts | 142° |
| 2026-05-09 13:52 | 53.92697 | 28.00096 | 1273 ft | 143 kts | 142° |
| 2026-05-09 13:52 | 53.91953 | 28.01203 | 1085 ft | 142 kts | 141° |
| 2026-05-09 13:52 | 53.91219 | 28.02287 | 882 ft | 141 kts | 140° |
| 2026-05-09 13:52 | 53.90489 | 28.03384 | 676 ft | 139 kts | 140° |
| 2026-05-09 13:53 | 53.89785 | 28.04410 | 637 ft | 123 kts | 139° |
| 2026-05-09 13:53 | 53.89294 | 28.05149 | 636 ft | 68 kts | 139° |
| 2026-05-09 13:53 | 53.89063 | 28.05491 | 637 ft | 24 kts | 139° |
| 2026-05-09 13:53 | 53.88954 | 28.05653 | 638 ft | 25 kts | 139° |
| 2026-05-09 13:54 | 53.88822 | 28.05783 | 637 ft | 19 kts | 161° |
| 2026-05-09 13:54 | 53.88704 | 28.05836 | 639 ft | 15 kts | 167° |
| 2026-05-09 13:54 | 53.88632 | 28.05778 | 639 ft | 12 kts | 260° |
| 2026-05-09 13:54 | 53.88684 | 28.05652 | 636 ft | 17 kts | 318° |
| 2026-05-09 13:55 | 53.88797 | 28.05483 | 645 ft | 23 kts | 319° |
| 2026-05-09 13:55 | 53.88918 | 28.05304 | 636 ft | 23 kts | 318° |
| 2026-05-09 13:55 | 53.89034 | 28.05132 | 636 ft | 22 kts | 319° |
| 2026-05-09 13:55 | 53.89145 | 28.04966 | 636 ft | 19 kts | 318° |
| 2026-05-09 13:56 | 53.89180 | 28.04841 | 639 ft | 11 kts | 247° |
| 2026-05-09 13:56 | 53.89118 | 28.04711 | 636 ft | 17 kts | 229° |
| 2026-05-09 13:56 | 53.89040 | 28.04557 | 641 ft | 17 kts | 229° |
| 2026-05-09 13:56 | 53.88962 | 28.04404 | 636 ft | 17 kts | 229° |
| 2026-05-09 13:57 | 53.88885 | 28.04253 | 636 ft | 17 kts | 229° |
| 2026-05-09 13:57 | 53.88808 | 28.04106 | 639 ft | 17 kts | 228° |
| 2026-05-09 13:57 | 53.88733 | 28.03960 | 636 ft | 16 kts | 229° |
| 2026-05-09 13:57 | 53.88658 | 28.03816 | 636 ft | 16 kts | 228° |
| 2026-05-09 13:58 | 53.88584 | 28.03675 | 636 ft | 16 kts | 228° |
| 2026-05-09 13:58 | 53.88523 | 28.03545 | 641 ft | 12 kts | 246° |
| 2026-05-09 13:58 | 53.88552 | 28.03439 | 637 ft | 10 kts | 317° |
| 2026-05-09 13:58 | 53.88611 | 28.03352 | 636 ft | 15 kts | 319° |
| 2026-05-09 13:59 | 53.88676 | 28.03297 | 636 ft | 9 kts | 20° |
| 2026-05-09 13:59 | 53.88731 | 28.03380 | 639 ft | 15 kts | 49° |
| 2026-05-09 13:59 | 53.88788 | 28.03493 | 639 ft | 10 kts | 48° |
| 2026-05-09 13:59 | 53.88840 | 28.03530 | 644 ft | 7 kts | 353° |
| 2026-05-09 14:00 | 53.88875 | 28.03504 | 637 ft | 3 kts | 332° |
| 2026-05-09 14:00 | 53.88876 | 28.03503 | 637 ft | 0 kts | 332° |